Frogsboro, North Carolina
Current Conditions -  °F | °C
As of 8:53 PM on Tuesday 21 Oct 2014 (Local Time) from KDAN Reporting Station
Overcast Overcast  
Wind Chill: 58°   Ceiling: 9500
Heat Index: 58°   Visibility: 10mi
Dew Point: 40°   Wind: 8mph
Humidity: 51%   Direction: 320°NW
Pressure: 29.95"   Gusts: 18mph
Location:  36.4125°N, 79.1919°W
Report Text: KDAN 220053Z AUTO 32007G16KT 10SM OVC095 14/04 A2995 RMK AO2 SLP135 T01440044
Loading
Personal Weather Stations






























Interactive Weather Map
Tropical Storm Tracking
New forecast layout! Learn more

10-Day Weather Forecast

Advertisements
Track Severe Weather on mobile